| time (UTC) | temp F | wind direction | speed MPH | gust MPH | rain 1hr in | rain 24hr in | rain mn in | humidity % | barometer mb |
| 20260904181600 | 56 | 360 | 4.0 | 11.0 | 0.00 | 0.00 | 0.00 | 67 | 1020.4 |
| 20260904181040 | 56 | 360 | 5.0 | 11.0 | 0.00 | 0.00 | 0.00 | 67 | 1020.4 |
| 20260904180543 | 56 | 360 | 4.0 | 11.0 | 0.00 | 0.00 | 0.00 | 67 | 1020.5 |
| 20260904175543 | 56 | 360 | 4.0 | 10.0 | 0.00 | 0.00 | 0.00 | 66 | 1020.4 |
| 20260904175039 | 56 | 360 | 4.0 | 10.0 | 0.00 | 0.00 | 0.00 | 66 | 1020.4 |
| 20260904174559 | 56 | 360 | 5.0 | 10.0 | 0.00 | 0.00 | 0.00 | 66 | 1020.3 |
| 20260904174040 | 57 | 360 | 5.0 | 10.0 | 0.00 | 0.00 | 0.00 | 66 | 1020.2 |
| 20260904173540 | 57 | 360 | 5.0 | 11.0 | 0.00 | 0.00 | 0.00 | 66 | 1020.4 |
| 20260904173058 | 57 | 360 | 5.0 | 11.0 | 0.00 | 0.00 | 0.00 | 65 | 1020.2 |
| 20260904172541 | 57 | 360 | 6.0 | 13.0 | 0.00 | 0.00 | 0.00 | 65 | 1020.1 |
| 20260904172041 | 57 | 360 | 6.0 | 13.0 | 0.00 | 0.00 | 0.00 | 65 | 1020.1 |
| 20260904171616 | 57 | 360 | 4.0 | 11.0 | 0.00 | 0.00 | 0.00 | 64 | 1020.0 |
| 20260904171040 | 57 | 360 | 6.0 | 11.0 | 0.00 | 0.00 | 0.00 | 64 | 1020.1 |
| 20260904170542 | 57 | 360 | 6.0 | 11.0 | 0.00 | 0.00 | 0.00 | 63 | 1020.2 |
| 20260904165543 | 58 | 360 | 7.0 | 12.0 | 0.00 | 0.00 | 0.00 | 62 | 1020.0 |
| 20260904165040 | 58 | 360 | 6.0 | 13.0 | 0.00 | 0.00 | 0.00 | 62 | 1019.9 |
| 20260904164616 | 58 | 360 | 6.0 | 13.0 | 0.00 | 0.00 | 0.00 | 61 | 1020.0 |
| 20260904164041 | 58 | 360 | 6.0 | 11.0 | 0.00 | 0.00 | 0.00 | 60 | 1019.9 |
| 20260904163541 | 59 | 360 | 5.0 | 10.0 | 0.00 | 0.00 | 0.00 | 58 | 1019.9 |
| 20260904163053 | 59 | 360 | 4.0 | 11.0 | 0.00 | 0.00 | 0.00 | 57 | 1019.9 |
| 20260904162541 | 59 | 360 | 5.0 | 12.0 | 0.00 | 0.00 | 0.00 | 56 | 1020.0 |
| 20260904162042 | 60 | 360 | 6.0 | 12.0 | 0.00 | 0.00 | 0.00 | 55 | 1020.0 |
| 20260904161608 | 60 | 360 | 4.0 | 9.0 | 0.00 | 0.00 | 0.00 | 53 | 1019.9 |
| 20260904161039 | 61 | 360 | 3.0 | 13.0 | 0.00 | 0.00 | 0.00 | 51 | 1019.7 |
| 20260904160543 | 61 | 360 | 3.0 | 13.0 | 0.00 | 0.00 | 0.00 | 50 | 1019.6 |
| 20260904160058 | 61 | 360 | 5.0 | 13.0 | 0.00 | 0.00 | 0.00 | 50 | 1019.6 |
| 20260904155543 | 61 | 360 | 1.0 | 4.0 | 0.00 | 0.00 | 0.00 | 50 | 1019.4 |
| 20260904155040 | 61 | 360 | 1.0 | 4.0 | 0.00 | 0.00 | 0.00 | 50 | 1019.3 |
| 20260904154559 | 61 | 360 | 1.0 | 4.0 | 0.00 | 0.00 | 0.00 | 50 | 1019.2 |
| 20260904154040 | 61 | 360 | 1.0 | 3.0 | 0.00 | 0.00 | 0.00 | 50 | 1019.3 |
| 20260904153540 | 61 | 360 | 2.0 | 3.0 | 0.00 | 0.00 | 0.00 | 50 | 1019.2 |
| 20260904153112 | 61 | 360 | 1.0 | 3.0 | 0.00 | 0.00 | 0.00 | 50 | 1019.3 |
| 20260904152539 | 61 | 360 | 1.0 | 4.0 | 0.00 | 0.00 | 0.00 | 50 | 1019.4 |
| 20260904152042 | 61 | 360 | 1.0 | 4.0 | 0.00 | 0.00 | 0.00 | 50 | 1019.3 |
| 20260904151600 | 62 | 360 | 1.0 | 4.0 | 0.00 | 0.00 | 0.00 | 50 | 1019.3 |
| 20260904151043 | 62 | 360 | 1.0 | 3.0 | 0.00 | 0.00 | 0.00 | 49 | 1019.3 |
| 20260904150540 | 62 | 360 | 2.0 | 3.0 | 0.00 | 0.00 | 0.00 | 49 | 1019.3 |
| 20260904150056 | 62 | 360 | 1.0 | 3.0 | 0.00 | 0.00 | 0.00 | 49 | 1019.4 |
| 20260904145540 | 62 | 360 | 1.0 | 3.0 | 0.00 | 0.00 | 0.00 | 48 | 1019.4 |
| 20260904145046 | 63 | 360 | 1.0 | 3.0 | 0.00 | 0.00 | 0.00 | 48 | 1019.4 |
| 20260904144605 | 63 | 360 | 1.0 | 3.0 | 0.00 | 0.00 | 0.00 | 48 | 1019.3 |
| 20260904144041 | 63 | 360 | 1.0 | 3.0 | 0.00 | 0.00 | 0.00 | 48 | 1019.4 |
| 20260904143542 | 62 | 360 | 1.0 | 3.0 | 0.00 | 0.00 | 0.00 | 48 | 1019.4 |
| 20260904143102 | 62 | 360 | 1.0 | 3.0 | 0.00 | 0.00 | 0.00 | 48 | 1019.4 |
| 20260904142548 | 62 | 360 | 0.0 | 3.0 | 0.00 | 0.00 | 0.00 | 49 | 1019.3 |
| 20260904142041 | 63 | 360 | 0.0 | 3.0 | 0.00 | 0.00 | 0.00 | 48 | 1019.3 |
| 20260904141600 | 63 | 360 | 1.0 | 3.0 | 0.00 | 0.00 | 0.00 | 48 | 1019.2 |
| 20260904141040 | 63 | 360 | 1.0 | 2.0 | 0.00 | 0.00 | 0.00 | 48 | 1019.3 |
| 20260904140540 | 63 | 360 | 1.0 | 2.0 | 0.00 | 0.00 | 0.00 | 47 | 1019.3 |
| 20260904140100 | 64 | 360 | 1.0 | 2.0 | 0.00 | 0.00 | 0.00 | 47 | 1019.3 |
| 20260904135540 | 64 | 360 | 1.0 | 2.0 | 0.00 | 0.00 | 0.00 | 46 | 1019.4 |
| 20260904135043 | 64 | 360 | 1.0 | 3.0 | 0.00 | 0.00 | 0.00 | 45 | 1019.4 |
| 20260904134559 | 65 | 360 | 1.0 | 3.0 | 0.00 | 0.00 | 0.00 | 44 | 1019.4 |
| 20260904134043 | 65 | 360 | 1.0 | 3.0 | 0.00 | 0.00 | 0.00 | 44 | 1019.4 |
| 20260904133544 | 66 | 360 | 1.0 | 4.0 | 0.00 | 0.00 | 0.00 | 43 | 1019.4 |
| 20260904133103 | 66 | 360 | 2.0 | 4.0 | 0.00 | 0.00 | 0.00 | 43 | 1019.4 |
| 20260904132543 | 66 | 360 | 1.0 | 4.0 | 0.00 | 0.00 | 0.00 | 43 | 1019.3 |
| 20260904132043 | 66 | 360 | 2.0 | 5.0 | 0.00 | 0.00 | 0.00 | 43 | 1019.2 |
| 20260904131607 | 66 | 360 | 2.0 | 5.0 | 0.00 | 0.00 | 0.00 | 43 | 1019.2 |
| 20260904131042 | 66 | 360 | 2.0 | 4.0 | 0.00 | 0.00 | 0.00 | 43 | 1019.2 |
| 20260904130540 | 66 | 360 | 1.0 | 3.0 | 0.00 | 0.00 | 0.00 | 43 | 1019.2 |
| 20260904130058 | 67 | 360 | 1.0 | 3.0 | 0.00 | 0.00 | 0.00 | 43 | 1019.1 |
| 20260904125543 | 67 | 360 | 1.0 | 4.0 | 0.00 | 0.00 | 0.00 | 43 | 1019.1 |
| 20260904125043 | 67 | 360 | 1.0 | 4.0 | 0.00 | 0.00 | 0.00 | 42 | 1019.0 |
| 20260904124557 | 67 | 360 | 2.0 | 4.0 | 0.00 | 0.00 | 0.00 | 42 | 1019.0 |
| 20260904124043 | 67 | 360 | 1.0 | 3.0 | 0.00 | 0.00 | 0.00 | 42 | 1019.0 |
| 20260904123542 | 67 | 360 | 1.0 | 3.0 | 0.00 | 0.00 | 0.00 | 41 | 1018.9 |
| 20260904123058 | 68 | 360 | 1.0 | 3.0 | 0.00 | 0.00 | 0.00 | 41 | 1018.9 |
| 20260904122542 | 68 | 360 | 1.0 | 4.0 | 0.00 | 0.00 | 0.00 | 40 | 1018.8 |
| 20260904122044 | 68 | 360 | 1.0 | 4.0 | 0.00 | 0.00 | 0.00 | 40 | 1018.8 |
| 20260904121605 | 69 | 360 | 1.0 | 4.0 | 0.00 | 0.00 | 0.00 | 39 | 1018.8 |
| 20260904121043 | 69 | 360 | 2.0 | 5.0 | 0.00 | 0.00 | 0.00 | 39 | 1018.6 |
| 20260904120539 | 69 | 360 | 2.0 | 5.0 | 0.00 | 0.00 | 0.00 | 38 | 1018.4 |
| 20260904120104 | 69 | 360 | 1.0 | 4.0 | 0.00 | 0.00 | 0.00 | 38 | 1018.4 |
| 20260904115539 | 70 | 360 | 2.0 | 6.0 | 0.00 | 0.00 | 0.00 | 37 | 1018.3 |
| 20260904115043 | 70 | 360 | 2.0 | 6.0 | 0.00 | 0.00 | 0.00 | 37 | 1018.3 |
| 20260904114606 | 70 | 360 | 3.0 | 6.0 | 0.00 | 0.00 | 0.00 | 36 | 1018.1 |
| 20260904114043 | 71 | 360 | 3.0 | 9.0 | 0.00 | 0.00 | 0.00 | 36 | 1018.1 |
| 20260904113540 | 71 | 360 | 3.0 | 9.0 | 0.00 | 0.00 | 0.00 | 36 | 1018.1 |
| 20260904113100 | 71 | 360 | 4.0 | 9.0 | 0.00 | 0.00 | 0.00 | 35 | 1018.0 |
| 20260904112544 | 71 | 360 | 3.0 | 8.0 | 0.00 | 0.00 | 0.00 | 35 | 1017.9 |
| 20260904112039 | 71 | 360 | 3.0 | 6.0 | 0.00 | 0.00 | 0.00 | 35 | 1017.9 |
| 20260904111602 | 71 | 360 | 3.0 | 6.0 | 0.00 | 0.00 | 0.00 | 35 | 1017.8 |
| 20260904111043 | 71 | 360 | 2.0 | 5.0 | 0.00 | 0.00 | 0.00 | 34 | 1017.7 |
| 20260904110544 | 71 | 360 | 3.0 | 5.0 | 0.00 | 0.00 | 0.00 | 34 | 1017.6 |
| 20260904110111 | 71 | 360 | 2.0 | 5.0 | 0.00 | 0.00 | 0.00 | 34 | 1017.6 |
| 20260904105543 | 72 | 360 | 3.0 | 8.0 | 0.00 | 0.00 | 0.00 | 33 | 1017.4 |
| 20260904105051 | 72 | 360 | 3.0 | 8.0 | 0.00 | 0.00 | 0.00 | 33 | 1017.3 |
| 20260904104600 | 72 | 360 | 3.0 | 6.0 | 0.00 | 0.00 | 0.00 | 33 | 1017.3 |
| 20260904104042 | 72 | 360 | 3.0 | 6.0 | 0.00 | 0.00 | 0.00 | 33 | 1017.3 |
| 20260904103540 | 73 | 360 | 3.0 | 8.0 | 0.00 | 0.00 | 0.00 | 32 | 1017.1 |
| 20260904103104 | 73 | 360 | 3.0 | 9.0 | 0.00 | 0.00 | 0.00 | 32 | 1017.0 |
| 20260904102540 | 73 | 360 | 4.0 | 10.0 | 0.00 | 0.00 | 0.00 | 32 | 1016.9 |
| 20260904102040 | 73 | 360 | 3.0 | 10.0 | 0.00 | 0.00 | 0.00 | 32 | 1016.7 |
| 20260904101612 | 73 | 360 | 3.0 | 10.0 | 0.00 | 0.00 | 0.00 | 32 | 1016.5 |
| 20260904101039 | 74 | 360 | 3.0 | 10.0 | 0.00 | 0.00 | 0.00 | 32 | 1016.3 |
| 20260904100539 | 74 | 360 | 4.0 | 10.0 | 0.00 | 0.00 | 0.00 | 32 | 1016.2 |
| 20260904100109 | 74 | 360 | 3.0 | 8.0 | 0.00 | 0.00 | 0.00 | 32 | 1016.1 |
| 20260904095543 | 74 | 360 | 4.0 | 8.0 | 0.00 | 0.00 | 0.00 | 32 | 1015.9 |
| 20260904095046 | 75 | 360 | 3.0 | 9.0 | 0.00 | 0.00 | 0.00 | 32 | 1015.9 |
| 20260904094609 | 75 | 360 | 3.0 | 9.0 | 0.00 | 0.00 | 0.00 | 32 | 1015.7 |
| 20260904094040 | 75 | 360 | 4.0 | 12.0 | 0.00 | 0.00 | 0.00 | 33 | 1015.7 |
| 20260904093540 | 76 | 360 | 4.0 | 12.0 | 0.00 | 0.00 | 0.00 | 33 | 1015.4 |
| 20260904093059 | 76 | 360 | 5.0 | 12.0 | 0.00 | 0.00 | 0.00 | 33 | 1015.5 |
| 20260904092541 | 76 | 360 | 6.0 | 13.0 | 0.00 | 0.00 | 0.00 | 32 | 1015.4 |
| 20260904092044 | 77 | 360 | 6.0 | 13.0 | 0.00 | 0.00 | 0.00 | 30 | 1015.2 |
| 20260904091615 | 77 | 265 | 9.0 | 17.0 | 0.00 | 0.00 | 0.00 | 29 | 1015.1 |
| 20260904091042 | 77 | 247 | 8.0 | 17.0 | 0.00 | 0.00 | 0.00 | 29 | 1014.9 |
| 20260904090541 | 78 | 257 | 10.0 | 17.0 | 0.00 | 0.00 | 0.00 | 28 | 1014.8 |
| 20260904090101 | 78 | 269 | 9.0 | 15.0 | 0.00 | 0.00 | 0.00 | 29 | 1014.6 |
| 20260904085539 | 78 | 262 | 8.0 | 14.0 | 0.00 | 0.00 | 0.00 | 31 | 1014.4 |
| 20260904085041 | 78 | 250 | 7.0 | 14.0 | 0.00 | 0.00 | 0.00 | 31 | 1014.4 |
| 20260904084558 | 78 | 261 | 8.0 | 16.0 | 0.00 | 0.00 | 0.00 | 31 | 1014.3 |
| 20260904084042 | 78 | 244 | 10.0 | 16.0 | 0.00 | 0.00 | 0.00 | 30 | 1014.1 |
| 20260904083540 | 78 | 246 | 7.0 | 16.0 | 0.00 | 0.00 | 0.00 | 29 | 1014.0 |
| 20260904083106 | 78 | 254 | 8.0 | 16.0 | 0.00 | 0.00 | 0.00 | 29 | 1013.9 |
| 20260904082543 | 78 | 282 | 9.0 | 17.0 | 0.00 | 0.00 | 0.00 | 29 | 1013.8 |
| 20260904082043 | 78 | 250 | 8.0 | 17.0 | 0.00 | 0.00 | 0.00 | 30 | 1013.8 |
| 20260904081610 | 79 | 256 | 10.0 | 16.0 | 0.00 | 0.00 | 0.00 | 28 | 1014.0 |
| 20260904081042 | 80 | 263 | 8.0 | 14.0 | 0.00 | 0.00 | 0.00 | 29 | 1013.8 |
| 20260904080539 | 80 | 250 | 8.0 | 17.0 | 0.00 | 0.00 | 0.00 | 29 | 1013.9 |
| 20260904080059 | 79 | 258 | 10.0 | 17.0 | 0.00 | 0.00 | 0.00 | 28 | 1013.9 |
| 20260904075540 | 80 | 257 | 9.0 | 20.0 | 0.00 | 0.00 | 0.00 | 28 | 1013.9 |
| 20260904075046 | 81 | 243 | 9.0 | 20.0 | 0.00 | 0.00 | 0.00 | 28 | 1013.8 |
| 20260904074626 | 81 | 257 | 11.0 | 20.0 | 0.00 | 0.00 | 0.00 | 28 | 1013.6 |
| 20260904074556 | 81 | 257 | 11.0 | 20.0 | 0.00 | 0.00 | 0.00 | 28 | 1013.6 |
| 20260904074040 | 81 | 254 | 8.0 | 19.0 | 0.00 | 0.00 | 0.00 | 27 | 1013.7 |
| 20260904073543 | 81 | 247 | 10.0 | 19.0 | 0.00 | 0.00 | 0.00 | 27 | 1013.5 |
| 20260904073121 | 81 | 259 | 13.0 | 20.0 | 0.00 | 0.00 | 0.00 | 26 | 1013.4 |
| 20260904072540 | 81 | 252 | 13.0 | 24.0 | 0.00 | 0.00 | 0.00 | 26 | 1013.3 |
| 20260904072039 | 81 | 246 | 12.0 | 24.0 | 0.00 | 0.00 | 0.00 | 25 | 1013.2 |
| 20260904071602 | 81 | 246 | 13.0 | 23.0 | 0.00 | 0.00 | 0.00 | 26 | 1013.2 |
| 20260904071040 | 81 | 244 | 10.0 | 16.0 | 0.00 | 0.00 | 0.00 | 27 | 1013.0 |
| 20260904070541 | 82 | 238 | 7.0 | 17.0 | 0.00 | 0.00 | 0.00 | 28 | 1013.0 |
| 20260904065543 | 81 | 236 | 10.0 | 17.0 | 0.00 | 0.00 | 0.00 | 28 | 1013.0 |
| 20260904065041 | 81 | 250 | 8.0 | 22.0 | 0.00 | 0.00 | 0.00 | 29 | 1012.9 |
| 20260904064556 | 81 | 254 | 10.0 | 22.0 | 0.00 | 0.00 | 0.00 | 29 | 1013.0 |
| 20260904064043 | 81 | 254 | 10.0 | 17.0 | 0.00 | 0.00 | 0.00 | 29 | 1012.9 |
| 20260904063541 | 82 | 259 | 11.0 | 17.0 | 0.00 | 0.00 | 0.00 | 29 | 1012.9 |
| 20260904063109 | 81 | 239 | 9.0 | 17.0 | 0.00 | 0.00 | 0.00 | 30 | 1012.9 |
| 20260904062543 | 82 | 257 | 9.0 | 17.0 | 0.00 | 0.00 | 0.00 | 29 | 1012.9 |
| 20260904062042 | 82 | 249 | 7.0 | 20.0 | 0.00 | 0.00 | 0.00 | 30 | 1012.8 |
| 20260904061600 | 82 | 261 | 11.0 | 20.0 | 0.00 | 0.00 | 0.00 | 30 | 1012.8 |
| 20260904061043 | 82 | 262 | 13.0 | 20.0 | 0.00 | 0.00 | 0.00 | 29 | 1012.7 |
| 20260904060543 | 83 | 277 | 10.0 | 20.0 | 0.00 | 0.00 | 0.00 | 29 | 1012.8 |
| 20260904060123 | 82 | 279 | 11.0 | 23.0 | 0.00 | 0.00 | 0.00 | 31 | 1012.8 |
| 20260904055539 | 82 | 274 | 10.0 | 23.0 | 0.00 | 0.00 | 0.00 | 30 | 1012.9 |
| 20260904055042 | 82 | 250 | 11.0 | 23.0 | 0.00 | 0.00 | 0.00 | 30 | 1012.8 |
| 20260904054623 | 83 | 227 | 10.0 | 18.0 | 0.00 | 0.00 | 0.00 | 30 | 1012.8 |
| 20260904054040 | 83 | 256 | 9.0 | 19.0 | 0.00 | 0.00 | 0.00 | 30 | 1012.8 |
| 20260904053541 | 83 | 263 | 9.0 | 20.0 | 0.00 | 0.00 | 0.00 | 29 | 1013.0 |
| 20260904053104 | 83 | 232 | 10.0 | 20.0 | 0.00 | 0.00 | 0.00 | 30 | 1012.8 |
| 20260904052543 | 82 | 237 | 11.0 | 20.0 | 0.00 | 0.00 | 0.00 | 30 | 1012.9 |
| 20260904052040 | 82 | 248 | 12.0 | 19.0 | 0.00 | 0.00 | 0.00 | 30 | 1012.9 |
| 20260904051601 | 82 | 261 | 8.0 | 19.0 | 0.00 | 0.00 | 0.00 | 30 | 1012.9 |
| 20260904051042 | 82 | 264 | 11.0 | 20.0 | 0.00 | 0.00 | 0.00 | 30 | 1013.0 |
| 20260904050539 | 82 | 238 | 10.0 | 21.0 | 0.00 | 0.00 | 0.00 | 30 | 1012.9 |
| 20260904050100 | 83 | 242 | 10.0 | 21.0 | 0.00 | 0.00 | 0.00 | 29 | 1012.9 |
| 20260904045543 | 82 | 280 | 6.0 | 18.0 | 0.00 | 0.00 | 0.00 | 30 | 1012.8 |
| 20260904045042 | 82 | 258 | 11.0 | 18.0 | 0.00 | 0.00 | 0.00 | 30 | 1012.8 |
| 20260904044557 | 82 | 247 | 8.0 | 16.0 | 0.00 | 0.00 | 0.00 | 30 | 1012.8 |
| 20260904044040 | 82 | 225 | 7.0 | 14.0 | 0.00 | 0.00 | 0.00 | 30 | 1012.7 |
| 20260904043540 | 83 | 248 | 8.0 | 17.0 | 0.00 | 0.00 | 0.00 | 30 | 1012.8 |
| 20260904043054 | 82 | 259 | 11.0 | 17.0 | 0.00 | 0.00 | 0.00 | 30 | 1012.7 |
| 20260904042541 | 83 | 247 | 11.0 | 21.0 | 0.00 | 0.00 | 0.00 | 30 | 1012.8 |
| 20260904042040 | 83 | 254 | 9.0 | 21.0 | 0.00 | 0.00 | 0.00 | 30 | 1012.9 |
| 20260904041607 | 83 | 252 | 11.0 | 21.0 | 0.00 | 0.00 | 0.00 | 29 | 1013.1 |
| 20260904041040 | 83 | 254 | 8.0 | 15.0 | 0.00 | 0.00 | 0.00 | 30 | 1013.1 |
| 20260904040540 | 82 | 238 | 8.0 | 20.0 | 0.00 | 0.00 | 0.00 | 31 | 1013.1 |
| 20260904040103 | 82 | 271 | 13.0 | 20.0 | 0.00 | 0.00 | 0.00 | 31 | 1013.2 |
| 20260904035543 | 82 | 248 | 8.0 | 19.0 | 0.00 | 0.00 | 0.00 | 30 | 1013.3 |
| 20260904035045 | 82 | 234 | 9.0 | 19.0 | 0.00 | 0.00 | 0.00 | 31 | 1013.3 |
| 20260904034604 | 82 | 241 | 11.0 | 17.0 | 0.00 | 0.00 | 0.00 | 31 | 1013.4 |
| 20260904034041 | 83 | 260 | 8.0 | 17.0 | 0.00 | 0.00 | 0.00 | 31 | 1013.5 |
| 20260904033545 | 82 | 245 | 9.0 | 16.0 | 0.00 | 0.00 | 0.00 | 32 | 1013.4 |
| 20260904033102 | 82 | 241 | 12.0 | 16.0 | 0.00 | 0.00 | 0.00 | 31 | 1013.6 |
| 20260904032545 | 83 | 238 | 7.0 | 18.0 | 0.00 | 0.00 | 0.00 | 31 | 1013.5 |
| 20260904032041 | 82 | 229 | 8.0 | 18.0 | 0.00 | 0.00 | 0.00 | 31 | 1013.5 |
| 20260904031606 | 82 | 246 | 12.0 | 23.0 | 0.00 | 0.00 | 0.00 | 31 | 1013.7 |
| 20260904031042 | 82 | 243 | 12.0 | 23.0 | 0.00 | 0.00 | 0.00 | 31 | 1013.6 |
| 20260904030541 | 82 | 250 | 7.0 | 16.0 | 0.00 | 0.00 | 0.00 | 31 | 1013.7 |
| 20260904030059 | 82 | 248 | 5.0 | 18.0 | 0.00 | 0.00 | 0.00 | 31 | 1013.7 |
| 20260904025539 | 82 | 229 | 8.0 | 19.0 | 0.00 | 0.00 | 0.00 | 31 | 1013.7 |
| 20260904025043 | 82 | 261 | 8.0 | 19.0 | 0.00 | 0.00 | 0.00 | 30 | 1013.7 |
| 20260904024602 | 82 | 228 | 6.0 | 17.0 | 0.00 | 0.00 | 0.00 | 30 | 1013.8 |
| 20260904024041 | 82 | 251 | 8.0 | 17.0 | 0.00 | 0.00 | 0.00 | 31 | 1013.8 |
| 20260904023539 | 82 | 184 | 7.0 | 15.0 | 0.00 | 0.00 | 0.00 | 31 | 1014.0 |
| 20260904023107 | 82 | 245 | 7.0 | 15.0 | 0.00 | 0.00 | 0.00 | 32 | 1013.9 |
| 20260904022544 | 82 | 257 | 8.0 | 15.0 | 0.00 | 0.00 | 0.00 | 32 | 1014.1 |
| 20260904022042 | 82 | 212 | 5.0 | 14.0 | 0.00 | 0.00 | 0.00 | 32 | 1014.0 |
| 20260904021605 | 81 | 288 | 9.0 | 15.0 | 0.00 | 0.00 | 0.00 | 32 | 1014.1 |
| 20260904021041 | 81 | 259 | 8.0 | 15.0 | 0.00 | 0.00 | 0.00 | 32 | 1014.2 |
| 20260904020542 | 80 | 269 | 5.0 | 15.0 | 0.00 | 0.00 | 0.00 | 32 | 1014.3 |
| 20260904020133 | 80 | 248 | 8.0 | 15.0 | 0.00 | 0.00 | 0.00 | 33 | 1014.2 |
| 20260904015540 | 80 | 249 | 7.0 | 16.0 | 0.00 | 0.00 | 0.00 | 34 | 1014.1 |
| 20260904015042 | 80 | 235 | 7.0 | 16.0 | 0.00 | 0.00 | 0.00 | 33 | 1014.3 |
| 20260904014622 | 80 | 247 | 6.0 | 11.0 | 0.00 | 0.00 | 0.00 | 33 | 1014.2 |
| 20260904014043 | 80 | 271 | 5.0 | 13.0 | 0.00 | 0.00 | 0.00 | 34 | 1014.2 |
| 20260904013542 | 79 | 238 | 5.0 | 14.0 | 0.00 | 0.00 | 0.00 | 35 | 1014.3 |
| 20260904013121 | 79 | 256 | 8.0 | 14.0 | 0.00 | 0.00 | 0.00 | 35 | 1014.2 |
| 20260904012544 | 79 | 217 | 5.0 | 10.0 | 0.00 | 0.00 | 0.00 | 36 | 1014.2 |
| 20260904012046 | 78 | 253 | 4.0 | 10.0 | 0.00 | 0.00 | 0.00 | 37 | 1014.2 |
| 20260904011602 | 78 | 249 | 5.0 | 10.0 | 0.00 | 0.00 | 0.00 | 39 | 1014.2 |
| 20260904011043 | 78 | 247 | 3.0 | 10.0 | 0.00 | 0.00 | 0.00 | 39 | 1014.3 |
| 20260904010542 | 77 | 241 | 3.0 | 10.0 | 0.00 | 0.00 | 0.00 | 40 | 1014.2 |
| 20260904010115 | 77 | 250 | 5.0 | 10.0 | 0.00 | 0.00 | 0.00 | 40 | 1014.2 |
| 20260904005541 | 77 | 251 | 3.0 | 7.0 | 0.00 | 0.00 | 0.00 | 41 | 1014.2 |
| 20260904005041 | 76 | 267 | 2.0 | 8.0 | 0.00 | 0.00 | 0.00 | 43 | 1014.3 |
| 20260904004556 | 75 | 236 | 3.0 | 8.0 | 0.00 | 0.00 | 0.00 | 44 | 1014.2 |
| 20260904004041 | 75 | 261 | 2.0 | 8.0 | 0.00 | 0.00 | 0.00 | 45 | 1014.2 |
| 20260904003539 | 74 | 290 | 2.0 | 6.0 | 0.00 | 0.00 | 0.00 | 45 | 1014.2 |
| 20260904003133 | 74 | 260 | 1.0 | 5.0 | 0.00 | 0.00 | 0.00 | 46 | 1014.2 |
| 20260904002544 | 73 | 211 | 2.0 | 6.0 | 0.00 | 0.00 | 0.00 | 48 | 1014.2 |
| 20260904002044 | 72 | 252 | 3.0 | 6.0 | 0.00 | 0.00 | 0.00 | 48 | 1014.0 |
| 20260904001602 | 72 | 236 | 2.0 | 6.0 | 0.00 | 0.00 | 0.00 | 49 | 1014.1 |
| 20260904001040 | 71 | 196 | 2.0 | 5.0 | 0.00 | 0.00 | 0.00 | 51 | 1014.1 |
| 20260904000540 | 70 | 250 | 2.0 | 5.0 | 0.00 | 0.00 | 0.00 | 52 | 1014.0 |
| 20260904000059 | 70 | 233 | 1.0 | 4.0 | 0.00 | 0.00 | 0.00 | 53 | 1013.9 |
| 20260903235543 | 69 | 155 | 2.0 | 4.0 | 0.00 | 0.00 | 0.00 | 54 | 1014.0 |
| 20260903235041 | 69 | 198 | 2.0 | 4.0 | 0.00 | 0.00 | 0.00 | 55 | 1013.9 |
| 20260903234557 | 68 | 249 | 1.0 | 4.0 | 0.00 | 0.00 | 0.00 | 57 | 1013.9 |
| 20260903234040 | 68 | 238 | 1.0 | 3.0 | 0.00 | 0.00 | 0.00 | 58 | 1013.9 |
| 20260903233541 | 67 | 250 | 0.0 | 3.0 | 0.00 | 0.00 | 0.00 | 59 | 1013.8 |
| 20260903233104 | 66 | 0 | 0.0 | 3.0 | 0.00 | 0.00 | 0.00 | 61 | 1013.9 |
| 20260903232541 | 65 | 196 | 0.0 | 3.0 | 0.00 | 0.00 | 0.00 | 63 | 1013.9 |
| 20260903232041 | 64 | 196 | 0.0 | 3.0 | 0.00 | 0.00 | 0.00 | 64 | 1013.9 |
| 20260903231600 | 63 | 0 | 0.0 | 2.0 | 0.00 | 0.00 | 0.00 | 66 | 1013.9 |
| 20260903231039 | 63 | 0 | 0.0 | 2.0 | 0.00 | 0.00 | 0.00 | 68 | 1013.9 |
| 20260903230542 | 62 | 0 | 0.0 | 2.0 | 0.00 | 0.00 | 0.00 | 70 | 1013.9 |
| 20260903230105 | 61 | 0 | 0.0 | 3.0 | 0.00 | 0.00 | 0.00 | 71 | 1013.9 |
| 20260903225544 | 60 | 0 | 0.0 | 3.0 | 0.00 | 0.00 | 0.00 | 72 | 1013.8 |
| 20260903225042 | 60 | 360 | 1.0 | 2.0 | 0.00 | 0.00 | 0.00 | 72 | 1013.9 |
| 20260903224636 | 59 | 0 | 0.0 | 2.0 | 0.00 | 0.00 | 0.00 | 73 | 1013.9 |
| 20260903224040 | 59 | 360 | 1.0 | 2.0 | 0.00 | 0.00 | 0.00 | 73 | 1013.8 |
| 20260903223540 | 59 | 360 | 1.0 | 2.0 | 0.00 | 0.00 | 0.00 | 73 | 1013.8 |
| 20260903223114 | 59 | 360 | 0.0 | 2.0 | 0.00 | 0.00 | 0.00 | 73 | 1013.7 |
| 20260903222539 | 59 | 360 | 0.0 | 2.0 | 0.00 | 0.00 | 0.00 | 73 | 1013.7 |
| 20260903222044 | 59 | 0 | 0.0 | 1.0 | 0.00 | 0.00 | 0.00 | 73 | 1013.6 |
| 20260903221559 | 59 | 0 | 0.0 | 0.0 | 0.00 | 0.00 | 0.00 | 73 | 1013.5 |
| 20260903221042 | 59 | 0 | 0.0 | 0.0 | 0.00 | 0.00 | 0.00 | 73 | 1013.4 |
| 20260903220542 | 59 | 0 | 0.0 | 0.0 | 0.00 | 0.00 | 0.00 | 73 | 1013.4 |
| 20260903220057 | 59 | 0 | 0.0 | 0.0 | 0.00 | 0.00 | 0.00 | 72 | 1013.3 |
| 20260903215546 | 59 | 0 | 0.0 | 0.0 | 0.00 | 0.00 | 0.00 | 72 | 1013.3 |
| 20260903215043 | 59 | 0 | 0.0 | 0.0 | 0.00 | 0.00 | 0.00 | 72 | 1013.2 |
| 20260903214556 | 59 | 0 | 0.0 | 1.0 | 0.00 | 0.00 | 0.00 | 71 | 1013.2 |
| 20260903214039 | 59 | 0 | 0.0 | 1.0 | 0.00 | 0.00 | 0.00 | 71 | 1013.1 |
| 20260903213545 | 60 | 0 | 0.0 | 0.0 | 0.00 | 0.00 | 0.00 | 71 | 1013.1 |
| 20260903213105 | 60 | 0 | 0.0 | 2.0 | 0.00 | 0.00 | 0.00 | 71 | 1013.0 |
| 20260903212542 | 60 | 0 | 0.0 | 3.0 | 0.00 | 0.00 | 0.00 | 71 | 1013.0 |
| 20260903212043 | 60 | 0 | 0.0 | 3.0 | 0.00 | 0.00 | 0.00 | 70 | 1012.9 |
| 20260903211611 | 60 | 0 | 1.0 | 3.0 | 0.00 | 0.00 | 0.00 | 70 | 1012.8 |
| 20260903211039 | 60 | 360 | 0.0 | 3.0 | 0.00 | 0.00 | 0.00 | 70 | 1012.8 |
| 20260903210541 | 60 | 360 | 0.0 | 2.0 | 0.00 | 0.00 | 0.00 | 70 | 1012.8 |
| 20260903210058 | 60 | 0 | 0.0 | 2.0 | 0.00 | 0.00 | 0.00 | 70 | 1012.7 |
| 20260903205540 | 60 | 0 | 0.0 | 2.0 | 0.00 | 0.00 | 0.00 | 70 | 1012.7 |
| 20260903205039 | 61 | 0 | 0.0 | 2.0 | 0.00 | 0.00 | 0.00 | 69 | 1012.7 |
| 20260903204604 | 61 | 0 | 0.0 | 3.0 | 0.00 | 0.00 | 0.00 | 69 | 1012.6 |
| 20260903204041 | 61 | 0 | 0.0 | 3.0 | 0.00 | 0.00 | 0.00 | 69 | 1012.5 |
| 20260903203541 | 61 | 0 | 1.0 | 3.0 | 0.00 | 0.00 | 0.00 | 69 | 1012.4 |
| 20260903203103 | 61 | 360 | 0.0 | 3.0 | 0.00 | 0.00 | 0.00 | 69 | 1012.4 |
| 20260903202543 | 61 | 360 | 0.0 | 3.0 | 0.00 | 0.00 | 0.00 | 68 | 1012.3 |
| 20260903202039 | 61 | 0 | 0.0 | 4.0 | 0.00 | 0.00 | 0.00 | 68 | 1012.3 |
| 20260903201603 | 61 | 360 | 1.0 | 4.0 | 0.00 | 0.00 | 0.00 | 68 | 1012.4 |
| 20260903201039 | 61 | 360 | 1.0 | 4.0 | 0.00 | 0.00 | 0.00 | 67 | 1012.4 |
| 20260903200539 | 62 | 360 | 1.0 | 4.0 | 0.00 | 0.00 | 0.00 | 67 | 1012.4 |
| 20260903200055 | 62 | 360 | 1.0 | 4.0 | 0.00 | 0.00 | 0.00 | 67 | 1012.4 |
| 20260903195538 | 62 | 360 | 1.0 | 4.0 | 0.00 | 0.00 | 0.00 | 67 | 1012.4 |
| 20260903195040 | 61 | 360 | 1.0 | 4.0 | 0.00 | 0.00 | 0.00 | 67 | 1012.4 |
| 20260903194603 | 61 | 360 | 1.0 | 3.0 | 0.00 | 0.00 | 0.00 | 67 | 1012.5 |
| 20260903194043 | 62 | 360 | 1.0 | 5.0 | 0.00 | 0.00 | 0.00 | 68 | 1012.4 |
| 20260903193542 | 62 | 360 | 1.0 | 5.0 | 0.00 | 0.00 | 0.00 | 67 | 1012.5 |
| 20260903193107 | 62 | 0 | 1.0 | 5.0 | 0.00 | 0.00 | 0.00 | 67 | 1012.5 |
| 20260903192538 | 62 | 360 | 1.0 | 3.0 | 0.00 | 0.00 | 0.00 | 67 | 1012.5 |
| 20260903192044 | 62 | 360 | 1.0 | 3.0 | 0.00 | 0.00 | 0.00 | 66 | 1012.6 |
| 20260903191601 | 62 | 360 | 0.0 | 3.0 | 0.00 | 0.00 | 0.00 | 66 | 1012.7 |
| 20260903191043 | 62 | 0 | 1.0 | 3.0 | 0.00 | 0.00 | 0.00 | 66 | 1012.7 |
| 20260903190541 | 62 | 360 | 1.0 | 3.0 | 0.00 | 0.00 | 0.00 | 66 | 1012.7 |
| 20260903190106 | 63 | 360 | 1.0 | 3.0 | 0.00 | 0.00 | 0.00 | 65 | 1012.8 |
| 20260903185542 | 63 | 360 | 1.0 | 4.0 | 0.00 | 0.00 | 0.00 | 65 | 1012.9 |
| 20260903185040 | 63 | 360 | 1.0 | 4.0 | 0.00 | 0.00 | 0.00 | 65 | 1012.7 |
| 20260903184603 | 63 | 360 | 1.0 | 4.0 | 0.00 | 0.00 | 0.00 | 65 | 1012.8 |
| 20260903184041 | 63 | 360 | 1.0 | 4.0 | 0.00 | 0.00 | 0.00 | 65 | 1012.6 |
| 20260903183542 | 63 | 0 | 1.0 | 4.0 | 0.00 | 0.00 | 0.00 | 66 | 1012.7 |
| 20260903183106 | 63 | 360 | 0.0 | 3.0 | 0.00 | 0.00 | 0.00 | 66 | 1012.7 |
| 20260903182544 | 63 | 360 | 1.0 | 3.0 | 0.00 | 0.00 | 0.00 | 66 | 1012.5 |
| 20260903182042 | 63 | 360 | 1.0 | 3.0 | 0.00 | 0.00 | 0.00 | 67 | 1012.6 |